createdAt,value
2018-08-04T00:01:55.862Z,80.09
2018-08-04T00:04:24.323Z,80.54
2018-08-04T00:06:52.784Z,79.89
2018-08-04T00:09:21.241Z,80.30
2018-08-04T00:11:49.732Z,79.93
2018-08-04T00:14:18.196Z,79.95
2018-08-04T00:16:46.671Z,79.85
2018-08-04T00:19:15.118Z,79.91
2018-08-04T00:21:43.681Z,80.55
2018-08-04T00:24:12.127Z,80.39
2018-08-04T00:26:40.590Z,80.84
2018-08-04T00:29:09.073Z,80.09
2018-08-04T00:31:37.532Z,80.65
2018-08-04T00:34:05.996Z,80.65
2018-08-04T00:36:34.500Z,79.87
2018-08-04T00:39:03.015Z,79.90
2018-08-04T00:41:31.464Z,80.11
2018-08-04T00:44:00.808Z,79.89
2018-08-04T00:46:29.269Z,80.41
2018-08-04T00:48:57.727Z,80.70
2018-08-04T00:51:26.193Z,80.53
2018-08-04T00:53:54.749Z,80.82
2018-08-04T00:56:23.216Z,80.95
2018-08-04T00:58:51.694Z,80.36
2018-08-04T01:01:20.141Z,80.95
2018-08-04T01:03:48.624Z,81.13
2018-08-04T01:06:17.090Z,80.26
2018-08-04T01:08:45.545Z,80.30
2018-08-04T01:11:14.003Z,80.65
2018-08-04T01:13:42.540Z,80.87
2018-08-04T01:16:10.996Z,80.90
2018-08-04T01:18:39.449Z,80.80
2018-08-04T01:21:08.040Z,80.62
2018-08-04T01:23:36.508Z,80.16
2018-08-04T01:26:05.024Z,80.15
2018-08-04T01:28:33.504Z,80.25
2018-08-04T01:31:01.991Z,80.81
2018-08-04T01:33:30.465Z,80.15
2018-08-04T01:35:58.963Z,80.46
2018-08-04T01:38:27.404Z,80.53
2018-08-04T01:40:55.924Z,81.01
2018-08-04T01:43:24.384Z,80.48
2018-08-04T01:45:52.856Z,81.42
2018-08-04T01:48:21.303Z,80.61
2018-08-04T01:50:49.776Z,81.20
2018-08-04T01:53:18.276Z,81.18
2018-08-04T01:55:46.761Z,80.46
2018-08-04T01:58:15.217Z,80.83
2018-08-04T02:00:43.671Z,81.08
2018-08-04T02:03:12.221Z,80.54
2018-08-04T02:05:40.684Z,80.53
2018-08-04T02:08:09.147Z,81.19
2018-08-04T02:10:37.595Z,80.96
2018-08-04T02:13:06.104Z,81.35
2018-08-04T02:15:34.736Z,81.19
2018-08-04T02:18:03.209Z,81.15
2018-08-04T02:20:31.670Z,81.02
2018-08-04T02:23:00.162Z,80.86
2018-08-04T02:25:28.624Z,80.75
2018-08-04T02:27:57.064Z,81.02
2018-08-04T02:30:25.600Z,81.27
2018-08-04T02:32:54.072Z,81.06
2018-08-04T02:35:22.520Z,81.31
2018-08-04T02:37:50.985Z,80.49
2018-08-04T02:40:19.436Z,81.39
2018-08-04T02:42:48.021Z,81.35
2018-08-04T02:45:16.496Z,81.02
2018-08-04T02:47:44.957Z,81.65
2018-08-04T02:50:13.408Z,80.79
2018-08-04T02:52:41.899Z,81.50
2018-08-04T02:55:10.371Z,81.59
2018-08-04T02:57:38.883Z,81.70
2018-08-04T03:00:07.412Z,81.51
2018-08-04T03:02:35.912Z,80.84
2018-08-04T03:05:04.363Z,81.16
2018-08-04T03:07:32.932Z,80.95
2018-08-04T03:10:01.416Z,80.96
2018-08-04T03:12:29.878Z,81.45
2018-08-04T03:14:58.371Z,80.80
2018-08-04T03:17:26.835Z,81.02
2018-08-04T03:19:55.287Z,81.57
2018-08-04T03:22:23.762Z,80.82
2018-08-04T03:24:52.256Z,80.99
2018-08-04T03:27:20.712Z,80.91
2018-08-04T03:29:49.181Z,81.02
2018-08-04T03:32:17.636Z,80.86
2018-08-04T03:34:46.103Z,81.25
2018-08-04T03:37:15.076Z,80.92
2018-08-04T03:39:43.607Z,80.90
2018-08-04T03:42:12.156Z,81.82
2018-08-04T03:44:40.648Z,81.16
2018-08-04T03:47:09.083Z,81.42
2018-08-04T03:49:37.538Z,81.02
2018-08-04T03:52:05.992Z,80.96
2018-08-04T03:54:34.443Z,81.81
2018-08-04T03:57:02.953Z,80.78
2018-08-04T03:59:31.457Z,81.06
2018-08-04T04:01:59.911Z,80.98
2018-08-04T04:04:28.412Z,80.96
2018-08-04T04:06:56.894Z,81.43
2018-08-04T04:09:25.352Z,80.95
2018-08-04T04:11:54.292Z,81.03
2018-08-04T04:14:22.743Z,81.83
2018-08-04T04:16:51.204Z,81.81
2018-08-04T04:19:19.704Z,81.96
2018-08-04T04:21:48.281Z,81.11
2018-08-04T04:24:16.732Z,81.32
2018-08-04T04:26:45.211Z,81.00
2018-08-04T04:29:13.664Z,80.96
2018-08-04T04:31:42.143Z,80.71
2018-08-04T04:34:10.596Z,81.51
2018-08-04T04:36:39.082Z,81.52
2018-08-04T04:39:09.727Z,81.18
2018-08-04T04:41:38.539Z,81.17
2018-08-04T04:44:07.004Z,81.74
2018-08-04T04:46:38.534Z,81.49
2018-08-04T04:49:08.576Z,81.23
2018-08-04T04:51:37.051Z,81.57
2018-08-04T04:54:05.852Z,81.21
2018-08-04T04:56:34.581Z,81.60
2018-08-04T04:59:03.043Z,80.60
2018-08-04T05:01:31.574Z,80.70
2018-08-04T05:04:00.053Z,80.75
2018-08-04T05:06:28.735Z,80.93
2018-08-04T05:08:57.348Z,80.57
2018-08-04T05:11:26.036Z,80.79
2018-08-04T05:13:54.716Z,80.61
2018-08-04T05:16:23.174Z,81.05
2018-08-04T05:18:51.628Z,81.11
2018-08-04T05:21:20.112Z,80.67
2018-08-04T05:23:48.576Z,81.04
2018-08-04T05:26:17.028Z,81.46
2018-08-04T05:28:45.512Z,81.15
2018-08-04T05:31:13.980Z,81.98
2018-08-04T05:33:42.439Z,81.16
2018-08-04T05:36:10.896Z,81.38
2018-08-04T05:38:39.348Z,81.73
2018-08-04T05:41:07.808Z,81.47
2018-08-04T05:43:36.334Z,81.42
2018-08-04T05:46:04.822Z,81.41
2018-08-04T05:48:33.309Z,81.32
2018-08-04T05:51:01.763Z,81.32
2018-08-04T05:53:30.231Z,81.36
2018-08-04T05:55:58.679Z,81.42
2018-08-04T05:58:27.164Z,81.69
2018-08-04T06:00:55.628Z,82.27
2018-08-04T06:03:24.154Z,82.10
2018-08-04T06:05:53.456Z,81.60
2018-08-04T06:08:21.915Z,82.17
2018-08-04T06:10:50.372Z,81.87
2018-08-04T06:13:18.831Z,81.71
2018-08-04T06:15:47.291Z,82.46
2018-08-04T06:18:15.760Z,82.54
2018-08-04T06:20:44.263Z,82.00
2018-08-04T06:23:12.716Z,82.18
2018-08-04T06:25:41.184Z,81.75
2018-08-04T06:28:09.659Z,82.69
2018-08-04T06:30:38.191Z,82.54
2018-08-04T06:33:06.600Z,81.89
2018-08-04T06:35:35.102Z,82.40
2018-08-04T06:38:03.561Z,82.45
2018-08-04T06:40:32.052Z,82.08
2018-08-04T06:43:00.624Z,82.46
2018-08-04T06:45:29.093Z,82.68
2018-08-04T06:47:57.696Z,81.86
2018-08-04T06:50:26.181Z,82.00
2018-08-04T06:52:54.724Z,82.37
2018-08-04T06:55:23.205Z,82.44
2018-08-04T06:57:51.684Z,82.01
2018-08-04T07:00:20.164Z,82.29
2018-08-04T07:02:48.628Z,82.19
2018-08-04T07:05:17.085Z,82.21
2018-08-04T07:07:46.053Z,82.97
2018-08-04T07:10:14.518Z,82.63
2018-08-04T07:12:42.992Z,83.19
2018-08-04T07:15:11.448Z,82.47
2018-08-04T07:17:39.903Z,82.42
2018-08-04T07:20:08.367Z,82.59
2018-08-04T07:22:37.039Z,82.42
2018-08-04T07:25:05.579Z,82.60
2018-08-04T07:27:34.035Z,82.61
2018-08-04T07:30:02.520Z,83.17
2018-08-04T07:32:31.007Z,83.13
2018-08-04T07:34:59.465Z,82.82
2018-08-04T07:37:27.916Z,82.66
2018-08-04T07:39:56.369Z,83.37
2018-08-04T07:42:24.815Z,83.29
2018-08-04T07:44:53.268Z,82.77
2018-08-04T07:47:22.172Z,82.62
2018-08-04T07:49:50.729Z,82.65
2018-08-04T07:52:19.224Z,83.25
2018-08-04T07:54:47.814Z,83.25
2018-08-04T07:57:16.273Z,82.08
2018-08-04T07:59:44.731Z,81.87
2018-08-04T08:02:13.173Z,81.80
2018-08-04T08:04:41.635Z,81.79
2018-08-04T08:07:10.097Z,82.28
2018-08-04T08:09:38.616Z,81.81
2018-08-04T08:12:07.073Z,81.62
2018-08-04T08:14:35.602Z,81.91
2018-08-04T08:17:04.066Z,82.31
2018-08-04T08:19:32.613Z,82.37
2018-08-04T08:22:01.032Z,82.36
2018-08-04T08:24:29.515Z,81.65
2018-08-04T08:26:57.981Z,82.58
2018-08-04T08:29:26.454Z,81.71
2018-08-04T08:31:54.914Z,82.47
2018-08-04T08:34:23.350Z,82.14
2018-08-04T08:36:51.804Z,81.72
2018-08-04T08:39:20.268Z,81.44
2018-08-04T08:41:48.753Z,81.82
2018-08-04T08:44:17.216Z,82.30
2018-08-04T08:46:45.688Z,81.34
2018-08-04T08:49:14.177Z,81.50
2018-08-04T08:51:42.623Z,82.07
2018-08-04T08:54:11.212Z,82.22
2018-08-04T08:56:39.551Z,81.45
2018-08-04T08:59:08.029Z,81.63
2018-08-04T09:01:36.489Z,82.33
2018-08-04T09:04:04.939Z,82.07
2018-08-04T09:06:33.412Z,81.74
2018-08-04T09:09:02.481Z,81.32
2018-08-04T09:11:30.976Z,81.61
2018-08-04T09:13:59.423Z,82.11
2018-08-04T09:16:27.921Z,81.43
2018-08-04T09:18:56.401Z,81.57
2018-08-04T09:21:24.863Z,81.62
2018-08-04T09:23:53.344Z,82.30
2018-08-04T09:26:21.815Z,81.70
2018-08-04T09:28:50.274Z,82.27
2018-08-04T09:31:18.744Z,81.52
2018-08-04T09:33:47.252Z,81.86
2018-08-04T09:36:15.728Z,82.28
2018-08-04T09:38:44.198Z,81.82
2018-08-04T09:41:12.693Z,82.65
2018-08-04T09:43:41.207Z,82.46
2018-08-04T09:46:09.678Z,82.49
2018-08-04T09:48:38.148Z,82.51
2018-08-04T09:51:06.911Z,82.58
2018-08-04T09:53:35.572Z,81.48
2018-08-04T09:56:04.068Z,81.95
2018-08-04T09:58:32.568Z,82.40
2018-08-04T10:01:06.297Z,81.82
2018-08-04T10:03:34.796Z,81.71
2018-08-04T10:06:03.251Z,82.18
2018-08-04T10:08:31.729Z,82.36
2018-08-04T10:11:00.201Z,81.98
2018-08-04T10:13:28.672Z,81.62
2018-08-04T10:15:57.183Z,81.95
2018-08-04T10:18:25.649Z,82.43
2018-08-04T10:20:54.153Z,81.87
2018-08-04T10:23:22.628Z,82.09
2018-08-04T10:25:51.100Z,82.58
2018-08-04T10:28:19.596Z,82.38
2018-08-04T10:30:48.068Z,82.65
2018-08-04T10:33:16.748Z,82.71
2018-08-04T10:35:45.225Z,82.10
2018-08-04T10:38:13.713Z,82.06
2018-08-04T10:40:42.177Z,81.82
2018-08-04T10:43:10.880Z,82.10
2018-08-04T10:45:39.588Z,82.68
2018-08-04T10:48:08.058Z,82.14
2018-08-04T10:50:36.521Z,82.00
2018-08-04T10:53:04.989Z,82.17
2018-08-04T10:55:33.464Z,82.22
2018-08-04T10:58:01.931Z,82.14
2018-08-04T11:00:30.580Z,82.83
2018-08-04T11:02:59.059Z,82.22
2018-08-04T11:05:27.549Z,82.83
2018-08-04T11:07:56.103Z,82.11
2018-08-04T11:10:24.602Z,82.33
2018-08-04T11:12:53.064Z,82.18
2018-08-04T11:15:21.538Z,82.07
2018-08-04T11:17:50.016Z,82.66
2018-08-04T11:20:18.480Z,82.70
2018-08-04T11:22:46.961Z,82.63
2018-08-04T11:25:15.444Z,82.06
2018-08-04T11:27:43.929Z,82.68
2018-08-04T11:30:12.397Z,82.85
2018-08-04T11:32:40.860Z,81.99
2018-08-04T11:35:09.376Z,82.04
2018-08-04T11:37:37.865Z,82.19
2018-08-04T11:40:06.410Z,82.53
2018-08-04T11:42:34.867Z,81.96
2018-08-04T11:45:03.324Z,82.62
2018-08-04T11:47:31.781Z,81.99
2018-08-04T11:50:00.240Z,82.00
2018-08-04T11:52:28.712Z,82.79
2018-08-04T11:54:57.203Z,82.13
2018-08-04T11:57:25.665Z,82.64
2018-08-04T11:59:54.139Z,82.32
2018-08-04T12:02:22.608Z,81.84
2018-08-04T12:04:51.063Z,82.07
2018-08-04T12:07:19.582Z,81.96
2018-08-04T12:09:48.052Z,82.10
2018-08-04T12:12:16.511Z,82.64
2018-08-04T12:14:44.985Z,82.61
2018-08-04T12:17:13.464Z,82.19
2018-08-04T12:19:41.929Z,81.98
2018-08-04T12:22:10.387Z,82.46
2018-08-04T12:24:38.876Z,82.37
2018-08-04T12:27:07.430Z,82.25
2018-08-04T12:29:35.898Z,82.74
2018-08-04T12:32:04.389Z,82.66
2018-08-04T12:34:32.858Z,81.86
2018-08-04T12:37:01.415Z,82.59
2018-08-04T12:39:29.885Z,82.55
2018-08-04T12:41:58.353Z,82.92
2018-08-04T12:44:26.812Z,82.18
2018-08-04T12:46:55.335Z,82.66
2018-08-04T12:49:23.840Z,81.98
2018-08-04T12:51:52.313Z,81.90
2018-08-04T12:54:20.831Z,81.88
2018-08-04T12:56:49.280Z,81.87
2018-08-04T12:59:17.750Z,82.09
2018-08-04T13:01:46.232Z,82.16
2018-08-04T13:04:14.716Z,81.96
2018-08-04T13:06:43.204Z,82.29
2018-08-04T13:09:12.076Z,82.51
2018-08-04T13:11:40.542Z,82.48
2018-08-04T13:14:09.013Z,81.99
2018-08-04T13:16:37.481Z,81.94
2018-08-04T13:19:06.169Z,82.13
2018-08-04T13:21:34.635Z,82.02
2018-08-04T13:24:03.116Z,81.77
2018-08-04T13:26:31.587Z,82.00
2018-08-04T13:29:00.072Z,82.34
2018-08-04T13:31:28.531Z,82.21
2018-08-04T13:33:56.996Z,82.55
2018-08-04T13:36:25.467Z,81.87
2018-08-04T13:38:53.944Z,82.38
2018-08-04T13:41:22.409Z,82.35
2018-08-04T13:43:50.876Z,82.50
2018-08-04T13:46:19.600Z,82.55
2018-08-04T13:48:48.106Z,81.63
2018-08-04T13:51:16.579Z,82.26
2018-08-04T13:53:45.062Z,82.50
2018-08-04T13:56:13.532Z,82.40
2018-08-04T13:58:42.035Z,82.17
2018-08-04T14:01:10.516Z,82.23
2018-08-04T14:03:38.988Z,82.25
2018-08-04T14:06:07.596Z,82.27
2018-08-04T14:08:36.420Z,81.58
2018-08-04T14:11:04.900Z,82.35
2018-08-04T14:13:33.364Z,81.73
2018-08-04T14:16:01.861Z,82.49
2018-08-04T14:18:30.426Z,82.23
2018-08-04T14:20:58.859Z,82.13
2018-08-04T14:23:27.353Z,81.75
2018-08-04T14:25:55.857Z,82.19
2018-08-04T14:28:24.416Z,82.26
2018-08-04T14:30:52.829Z,82.38
2018-08-04T14:33:21.307Z,81.53
2018-08-04T14:35:49.906Z,81.49
2018-08-04T14:38:18.384Z,82.08
2018-08-04T14:40:46.856Z,81.65
2018-08-04T14:43:15.333Z,81.34
2018-08-04T14:45:43.801Z,82.41
2018-08-04T14:48:12.288Z,81.89
2018-08-04T14:50:40.765Z,82.38
2018-08-04T14:53:09.401Z,81.55
2018-08-04T14:55:37.897Z,82.15
2018-08-04T14:58:06.357Z,82.20
2018-08-04T15:00:34.824Z,81.85
2018-08-04T15:03:03.296Z,81.63
2018-08-04T15:05:31.853Z,82.10
2018-08-04T15:08:00.375Z,81.96
2018-08-04T15:10:28.927Z,82.35
2018-08-04T15:12:57.464Z,81.94
2018-08-04T15:15:25.953Z,81.63
2018-08-04T15:17:54.429Z,82.31
2018-08-04T15:20:22.913Z,82.21
2018-08-04T15:22:51.512Z,81.46
2018-08-04T15:25:20.000Z,82.23
2018-08-04T15:27:48.572Z,81.69
2018-08-04T15:30:17.043Z,81.64
2018-08-04T15:32:45.542Z,81.17
2018-08-04T15:35:14.049Z,81.97
2018-08-04T15:37:42.548Z,81.49
2018-08-04T15:40:11.025Z,81.41
2018-08-04T15:42:39.535Z,81.78
2018-08-04T15:45:08.009Z,82.04
2018-08-04T15:47:36.553Z,81.44
2018-08-04T15:50:05.797Z,82.14
2018-08-04T15:52:34.449Z,81.80
2018-08-04T15:55:03.120Z,81.06
2018-08-04T15:57:31.621Z,81.66
2018-08-04T16:00:00.152Z,81.42
2018-08-04T16:02:28.623Z,81.62
2018-08-04T16:04:57.145Z,80.94
2018-08-04T16:07:25.639Z,81.75
2018-08-04T16:09:54.625Z,81.64
2018-08-04T16:12:23.112Z,81.38
2018-08-04T16:14:51.584Z,81.76
2018-08-04T16:17:20.064Z,80.94
2018-08-04T16:19:48.547Z,81.77
2018-08-04T16:22:17.032Z,81.71
2018-08-04T16:24:45.833Z,81.53
2018-08-04T16:27:14.327Z,81.10
2018-08-04T16:29:42.839Z,81.41
2018-08-04T16:32:11.324Z,81.82
2018-08-04T16:34:39.856Z,81.09
2018-08-04T16:37:08.327Z,81.78
2018-08-04T16:39:36.877Z,81.83
2018-08-04T16:42:05.521Z,80.97
2018-08-04T16:44:34.003Z,81.75
2018-08-04T16:47:02.524Z,81.87
2018-08-04T16:49:31.010Z,82.01
2018-08-04T16:51:59.493Z,81.89
2018-08-04T16:54:27.984Z,82.02
2018-08-04T16:56:56.463Z,81.97
2018-08-04T16:59:25.017Z,81.28
2018-08-04T17:01:53.501Z,82.05
2018-08-04T17:04:22.012Z,82.08
2018-08-04T17:06:50.509Z,80.79
2018-08-04T17:09:19.061Z,81.77
2018-08-04T17:11:47.524Z,81.28
2018-08-04T17:14:15.998Z,81.83
2018-08-04T17:16:44.498Z,81.92
2018-08-04T17:19:13.000Z,81.87
2018-08-04T17:21:41.497Z,81.83
2018-08-04T17:24:09.981Z,81.29
2018-08-04T17:26:38.483Z,81.90
2018-08-04T17:29:06.944Z,82.10
2018-08-04T17:31:35.409Z,81.92
2018-08-04T17:34:03.871Z,81.85
2018-08-04T17:36:32.353Z,81.84
2018-08-04T17:39:00.848Z,81.85
2018-08-04T17:41:29.324Z,81.64
2018-08-04T17:43:57.796Z,82.13
2018-08-04T17:46:26.265Z,81.67
2018-08-04T17:48:54.734Z,82.05
2018-08-04T17:51:23.200Z,81.49
2018-08-04T17:53:51.682Z,81.37
2018-08-04T17:56:20.188Z,81.48
2018-08-04T17:58:48.712Z,82.06
2018-08-04T18:01:17.188Z,81.96
2018-08-04T18:03:45.655Z,82.13
2018-08-04T18:06:14.119Z,82.23
2018-08-04T18:08:42.621Z,81.95
2018-08-04T18:11:11.093Z,81.54
2018-08-04T18:13:39.599Z,82.05
2018-08-04T18:16:08.084Z,81.45
2018-08-04T18:18:36.564Z,82.14
2018-08-04T18:21:05.064Z,81.98
2018-08-04T18:23:33.565Z,81.74
2018-08-04T18:26:02.046Z,81.34
2018-08-04T18:28:30.527Z,82.23
2018-08-04T18:30:59.049Z,82.00
2018-08-04T18:33:27.549Z,81.64
2018-08-04T18:35:56.041Z,81.54
2018-08-04T18:38:24.533Z,81.41
2018-08-04T18:40:53.004Z,82.14
2018-08-04T18:43:21.495Z,82.17
2018-08-04T18:45:49.973Z,82.22
2018-08-04T18:48:18.454Z,81.91
2018-08-04T18:50:46.931Z,81.65
2018-08-04T18:53:15.401Z,81.49
2018-08-04T18:55:43.925Z,82.15
2018-08-04T18:58:12.426Z,81.67
2018-08-04T19:00:40.903Z,82.27
2018-08-04T19:03:09.426Z,82.29
2018-08-04T19:05:37.887Z,82.22
2018-08-04T19:08:06.392Z,81.80
2018-08-04T19:10:34.946Z,81.94
2018-08-04T19:13:03.411Z,81.77
2018-08-04T19:15:31.888Z,82.43
2018-08-04T19:18:00.368Z,82.03
2018-08-04T19:20:28.864Z,82.63
2018-08-04T19:22:57.329Z,82.28
2018-08-04T19:25:25.815Z,82.98
2018-08-04T19:27:54.310Z,81.84
2018-08-04T19:30:22.774Z,82.43
2018-08-04T19:32:51.281Z,82.99
2018-08-04T19:35:19.755Z,82.68
2018-08-04T19:37:48.215Z,82.37
2018-08-04T19:40:16.750Z,81.69
2018-08-04T19:42:45.237Z,80.97
2018-08-04T19:45:13.716Z,81.56
2018-08-04T19:47:42.304Z,82.65
2018-08-04T19:50:10.822Z,82.61
2018-08-04T19:52:39.296Z,82.82
2018-08-04T19:55:07.789Z,82.12
2018-08-04T19:57:36.252Z,81.99
2018-08-04T20:00:05.467Z,82.10
2018-08-04T20:02:33.973Z,82.93
2018-08-04T20:05:02.504Z,82.12
2018-08-04T20:07:30.989Z,82.10
2018-08-04T20:09:59.533Z,82.32
2018-08-04T20:12:28.016Z,82.17
2018-08-04T20:14:56.492Z,82.22
2018-08-04T20:17:24.990Z,82.11
2018-08-04T20:19:53.455Z,82.19
2018-08-04T20:22:21.956Z,82.13
2018-08-04T20:24:50.440Z,82.72
2018-08-04T20:27:18.917Z,81.97
2018-08-04T20:29:47.412Z,82.40
2018-08-04T20:32:15.889Z,82.19
2018-08-04T20:34:44.439Z,82.28
2018-08-04T20:37:12.959Z,83.01
2018-08-04T20:39:41.453Z,82.53
2018-08-04T20:42:09.928Z,82.49
2018-08-04T20:44:38.470Z,82.37
2018-08-04T20:47:06.965Z,82.54
2018-08-04T20:49:35.439Z,82.41
2018-08-04T20:52:03.912Z,82.68
2018-08-04T20:54:32.385Z,82.30
2018-08-04T20:57:00.921Z,82.87
2018-08-04T20:59:29.392Z,82.31
2018-08-04T21:02:00.261Z,82.58
2018-08-04T21:04:29.841Z,82.64
2018-08-04T21:06:58.352Z,82.37
2018-08-04T21:09:26.832Z,82.70
2018-08-04T21:11:56.196Z,82.33
2018-08-04T21:14:25.778Z,82.07
2018-08-04T21:16:55.224Z,81.67
2018-08-04T21:19:24.455Z,82.31
2018-08-04T21:21:52.923Z,82.37
2018-08-04T21:24:22.697Z,82.56
2018-08-04T21:26:52.135Z,81.89
2018-08-04T21:29:20.996Z,82.30
2018-08-04T21:31:49.465Z,81.81
2018-08-04T21:34:17.931Z,82.28
2018-08-04T21:36:46.433Z,82.03
2018-08-04T21:39:16.147Z,81.99
2018-08-04T21:41:45.473Z,81.64
2018-08-04T21:44:14.374Z,81.85
2018-08-04T21:46:51.168Z,81.28
2018-08-04T21:49:20.161Z,81.79
2018-08-04T21:51:49.841Z,81.52
2018-08-04T21:54:19.920Z,82.26
2018-08-04T21:56:47.812Z,82.03
2018-08-04T21:59:16.267Z,81.54
2018-08-04T22:01:50.083Z,81.56
2018-08-04T22:04:18.480Z,82.42
2018-08-04T22:08:02.201Z,81.64
2018-08-04T22:10:30.681Z,81.47
2018-08-04T22:12:59.191Z,81.40
2018-08-04T22:15:27.691Z,81.56
2018-08-04T22:17:56.160Z,82.20
2018-08-04T22:20:25.238Z,81.49
2018-08-04T22:22:53.919Z,81.54
2018-08-04T22:25:25.781Z,81.50
2018-08-04T22:27:54.676Z,81.79
2018-08-04T22:30:23.556Z,81.75
2018-08-04T22:32:52.368Z,82.07
2018-08-04T22:35:21.183Z,81.49
2018-08-04T22:37:49.648Z,81.91
2018-08-04T22:40:18.994Z,81.24
2018-08-04T22:42:47.456Z,82.07
2018-08-04T22:46:13.979Z,81.08
2018-08-04T22:48:49.163Z,81.47
2018-08-04T22:51:22.979Z,81.30
2018-08-04T22:53:51.455Z,81.82
2018-08-04T22:56:19.952Z,81.85
2018-08-04T22:58:48.429Z,81.83
2018-08-04T23:01:16.904Z,81.65
2018-08-04T23:06:13.821Z,80.99
2018-08-04T23:08:42.275Z,81.67
2018-08-04T23:11:10.736Z,82.02
2018-08-04T23:13:39.236Z,81.49
2018-08-04T23:16:07.691Z,81.83
2018-08-04T23:18:36.159Z,81.49
2018-08-04T23:21:04.664Z,82.13
2018-08-04T23:23:33.128Z,82.12
2018-08-04T23:26:01.613Z,81.63
2018-08-04T23:28:30.109Z,81.72
2018-08-04T23:30:58.576Z,81.81
2018-08-04T23:33:27.040Z,81.89
2018-08-04T23:35:55.490Z,82.25
2018-08-04T23:38:23.949Z,81.82
2018-08-04T23:40:52.425Z,81.35
2018-08-04T23:43:20.967Z,82.11
2018-08-04T23:45:49.508Z,82.32
2018-08-04T23:48:17.964Z,81.54
2018-08-04T23:50:46.448Z,81.91
2018-08-04T23:53:14.913Z,82.11
2018-08-04T23:55:43.415Z,81.19
2018-08-04T23:58:11.889Z,81.53
